Flight Track Log - Related Links

Times and Time Zones

All times are in EDT time to prevent confusion due to time zone crossing. See the N75ZM flight status page for this flight to view local times or setup timezone preferences in your user account.

Time Position Orientation Groundspeed Altitude Reporting Facility
EDT Latitude Longitude Course Direction KTS MPH feet Rate Location/Type
Tue 09:55:41 AM 26.6200 -77.4769 289° West 149 171 7,500  Level Miami Center
Tue 09:56:41 AM 26.6178 -77.5211 267° West 139 160 8,000 300 Climbing Miami Center
Tue 09:57:41 AM 26.6175 -77.5583 270° West 130 150 8,100 50 Climbing Miami Center
Tue 09:58:41 AM 26.6217 -77.6069 275° West 144 166 8,100  Level Miami Center
Tue 09:59:41 AM 26.6256 -77.6536 275° West 144 166 8,100  Level Miami Center
Tue 10:00:00 AM 26.7829 -77.9584 289° West  Level Estimated
Tue 10:00:41 AM 26.6336 -77.7000 281° West 149 171 8,100  Level Miami Center
Tue 10:01:41 AM 26.6356 -77.7419 273° West 149 171 8,100 -50 Level Miami Center
Tue 10:02:41 AM 26.6497 -77.7817 292° West 149 171 8,000  Descending Miami Center
Tue 10:03:41 AM 26.6556 -77.8444 276° West 168 193 8,100  Climbing Miami Center
Tue 10:04:41 AM 26.6553 -77.8956 270° West 168 193 8,000 -50 Descending Miami Center
Tue 10:05:41 AM 26.6550 -77.9419 270° West 168 193 8,000  Level Miami Center
Tue 10:06:41 AM 26.6547 -77.9747 269° West 168 193 8,000  Level Miami Center
Tue 10:08:41 AM 26.6547 -77.9747 318° Northwest 168 193 8,000  Level Miami Center
Tue 10:10:41 AM 26.6547 -77.9747 318° Northwest 168 193 8,000  Level Miami Center
Tue 10:12:41 AM 26.6547 -77.9747 318° Northwest 168 193 8,000  Level Miami Center
Tue 10:14:41 AM 26.6547 -77.9747 318° Northwest 168 193 8,000  Level Miami Center
Tue 10:16:41 AM 26.9664 -78.1850 329° Northwest 168 193 8,000  Level Miami Center
Tue 10:18:41 AM 26.9664 -78.1850 180° South 168 193 8,000  Level Miami Center
Tue 10:20:41 AM 26.9664 -78.1850 180° South 168 193 8,000 25 Level Miami Center
Tue 10:22:41 AM 26.8167 -78.7047 252° West 168 193 8,100 33 Climbing Miami Center
Tue 10:23:41 AM 26.8283 -78.7586 284° West 162 186 8,100  Level Miami Center
Tue 10:24:41 AM 26.8444 -78.8053 291° West 157 181 8,100  Level Miami Center
Tue 10:25:41 AM 26.8606 -78.8475 293° West 157 181 8,100  Level Miami Center
Tue 10:26:41 AM 26.8831 -78.8922 299° West 157 181 8,100  Level Miami Center
Tue 10:27:41 AM 26.9011 -78.9367 294° West 157 181 8,100  Level Miami Center
Tue 10:28:41 AM 26.9214 -78.9792 298° West 157 181 8,100  Level Miami Center
Tue 10:29:41 AM 26.9436 -79.0239 299° West 157 181 8,100  Level Miami Center
Tue 10:30:41 AM 26.9619 -79.0661 296° West 157 181 8,100  Level Miami Center
Tue 10:31:41 AM 26.9842 -79.1061 302° West 157 181 8,100  Level Miami Center
Tue 10:32:41 AM 27.0192 -79.1442 316° Northwest 157 181 8,100  Level Miami Center
Tue 10:33:41 AM 27.0519 -79.1797 316° Northwest 162 186 8,100  Level Miami Center
Tue 10:34:41 AM 27.0869 -79.2153 318° Northwest 168 193 8,100  Level Miami Center
Tue 10:35:41 AM 27.1197 -79.2511 316° Northwest 168 193 8,100  Level Miami Center
Tue 10:36:41 AM 27.1525 -79.2892 314° West 168 193 8,100 -100 Level Miami Center
Tue 10:37:41 AM 27.1708 -79.3269 299° West 168 193 7,900 -350 Descending Miami Center
Tue 10:38:41 AM 27.1928 -79.3764 297° West 168 193 7,400 -550 Descending Miami Center
Tue 10:39:41 AM 27.2108 -79.4281 291° West 175 201 6,800 -550 Descending Miami Center
Tue 10:40:41 AM 27.2267 -79.4753 291° West 168 193 6,300 -500 Descending Miami Center
Tue 10:41:41 AM 27.2425 -79.5175 293° West 163 188 5,800 -500 Descending Miami Center
Tue 10:42:41 AM 27.2586 -79.5578 294° West 163 188 5,300 -500 Descending Miami Center
Tue 10:43:41 AM 27.2744 -79.6000 293° West 157 181 4,800 -550 Descending Miami Center
Tue 10:44:41 AM 27.2903 -79.6494 290° West 157 181 4,200 -318 Descending Miami Center
Tue 10:45:53 AM 27.3039 -79.6919 290° West 152 175 4,100 -45 Descending Miami Center
Tue 10:46:53 AM 27.3197 -79.7344 293° West 147 169 4,100  Level Miami Center
Tue 10:47:53 AM 27.3336 -79.7769 290° West 142 163 4,100  Level Miami Center
Tue 10:48:53 AM 27.3494 -79.8169 294° West 142 163 4,100  Level Miami Center
Tue 10:49:53 AM 27.3633 -79.8572 291° West 142 163 4,100 -150 Level Miami Center
Tue 10:50:53 AM 27.3772 -79.8950 292° West 142 163 3,800 -400 Descending Miami Center
Tue 10:51:53 AM 27.3931 -79.9375 293° West 142 163 3,300 -350 Descending Miami Center
Tue 10:52:53 AM 27.4108 -79.9847 293° West 147 169 3,100 -100 Descending Miami Center
Tue 10:53:53 AM 27.4244 -80.0247 291° West 142 163 3,100 -200 Level Miami Center
Tue 10:54:53 AM 27.4381 -80.0672 290° West 142 163 2,700 -400 Descending Miami Center
Tue 10:55:53 AM 27.4517 -80.1122 289° West 152 175 2,300 -300 Descending Miami Center
Tue 10:56:53 AM 27.4611 -80.1639 282° West 158 182 2,100 -200 Descending Miami Center

Login

Don't have an account? Register now (free) for customized features, flight alerts, and more!